KSFO/SFO METAR and TAF weather

Enter ICAO airport designator
Station Type Date Time Source
KSFO METAR 2021/05/14 13:56 UTC NOAA

KSFO 141356Z 24012KT 8SM FEW005 BKN009 OVC012 12/08 A2999 RMK AO2 SLP156 T01170083


Station Type Date Time Source
KSFO Decoded METAR 2021/05/14 13:56 UTC NOAA

SAN FRANCISCO INTERNATIONAL AIRPORT , CA, United States (KSFO) 37-37N 122-22W 26M
May 14, 2021 - 09:56 AM EDT / 2021.05.14 1356 UTC
Wind: from the WSW (240 degrees) at 14 MPH (12 KT):0
Visibility: 8 mile(s):0
Sky conditions: overcast
Temperature: 53.1 F (11.7 C)
Dew Point: 46.9 F (8.3 C)
Relative Humidity: 79%
Pressure (altimeter): 29.99 in. Hg (1015 hPa)
ob: KSFO 141356Z 24012KT 8SM FEW005 BKN009 OVC012 12/08 A2999 RMK AO2 SLP156 T01170083
cycle: 14

Station Type Date Time Source
KSFO TAF 2021/05/14 14:12 UTC NOAA

TAF
AMD KSFO 141409Z 1414/1518 24010KT P6SM FEW004 OVC009
FM141700 25011KT P6SM OVC012
FM141800 27014G20KT P6SM BKN013
FM141900 27017G22KT P6SM SCT014
FM142200 28020G27KT P6SM FEW015 SCT200
FM150200 27018G24KT P6SM OVC015
FM150500 27014G22KT 5SM -DZ BR OVC015
FM150800 27015KT 5SM -DZ BR OVC010

Example: see airport list